Cadley, Georgia
Current Conditions -  °F | °C
As of 8:55 AM on Wednesday 26 Nov 2014 (Local Time) from KHQU Reporting Station
Broken Clouds Broken Clouds  
Wind Chill: 49°   Ceiling: 400
Heat Index: 49°   Visibility: 10mi
Dew Point: 49°   Wind: 3mph
Humidity: 100%   Direction: 300°WNW
Pressure: 30.08"   Gusts: NA
Location:  33.4918°N, 82.7343°W
Report Text: KHQU 261355Z AUTO 30003KT 10SM BKN004 BKN007 10/10 A3008 RMK AO1 T00950095
Loading
Personal Weather Stations






























Interactive Weather Map New forecast layout! Learn more

10-Day Weather Forecast

Advertisements
Track Severe Weather on mobile